Time,TemperatureF,DewpointF,PressureIn,WindDirection,WindDirectionDegrees,WindSpeedMPH,WindSpeedGustMPH,Humidity,HourlyPrecipIn,Conditions,Clouds,dailyrainin,SoftwareType,DateUTC
2013-02-02 00:00:00,30.8,27.1,29.96,NNW,338,0.4,2.0,86,0.00,,SKC,0.00,VWS V14.01,2013-02-02 07:00:00,
2013-02-02 00:04:00,30.6,26.9,29.96,NNW,338,0.2,1.8,86,0.00,,SKC,0.00,VWS V14.01,2013-02-02 07:04:00,
2013-02-02 00:05:00,30.6,26.9,29.96,NNW,338,0.2,1.8,86,0.00,,SKC,0.00,VWS V14.01,2013-02-02 07:05:00,
2013-02-02 00:10:00,30.6,26.9,29.96,NNW,338,0.2,1.8,86,0.00,,SKC,0.00,VWS V14.01,2013-02-02 07:10:00,
2013-02-02 01:00:00,29.3,24.8,29.96,WNW,292,1.8,1.8,83,0.00,,SKC,0.00,VWS V14.01,2013-02-02 08:00:00,
2013-02-02 01:02:00,29.3,24.8,29.96,NW,315,1.1,1.8,83,0.00,,SKC,0.00,VWS V14.01,2013-02-02 08:02:00,
2013-02-02 01:06:00,29.3,24.8,29.96,NW,315,1.1,1.8,83,0.00,,SKC,0.00,VWS V14.01,2013-02-02 08:06:00,
2013-02-02 01:11:00,29.3,24.8,29.96,NW,315,1.1,1.8,83,0.00,,SKC,0.00,VWS V14.01,2013-02-02 08:11:00,
2013-02-02 02:00:00,30.8,23.5,29.97,WNW,292,2.2,2.2,74,0.00,,SKC,0.00,VWS V14.01,2013-02-02 09:00:00,
2013-02-02 02:04:00,30.6,23.3,29.97,WNW,292,0.9,2.7,74,0.00,,SKC,0.00,VWS V14.01,2013-02-02 09:04:00,
2013-02-02 02:05:00,30.6,23.3,29.97,WNW,292,0.9,2.7,74,0.00,,SKC,0.00,VWS V14.01,2013-02-02 09:05:00,
2013-02-02 02:10:00,30.6,23.3,29.97,WNW,292,0.9,2.7,74,0.00,,SKC,0.00,VWS V14.01,2013-02-02 09:10:00,
2013-02-02 03:00:00,30.6,22.7,29.97,WNW,292,1.3,2.7,72,0.00,,SKC,0.00,VWS V14.01,2013-02-02 10:00:00,
2013-02-02 03:05:00,30.6,22.3,29.97,NW,315,4.9,4.9,71,0.00,,SKC,0.00,VWS V14.01,2013-02-02 10:05:00,
2013-02-02 03:10:00,30.6,22.3,29.97,WNW,292,1.3,4.9,71,0.00,,SKC,0.00,VWS V14.01,2013-02-02 10:10:00,
2013-02-02 03:15:00,30.6,22.3,29.97,North,0,1.1,4.9,71,0.00,,SKC,0.00,VWS V14.01,2013-02-02 10:15:00,
2013-02-02 03:20:00,30.6,22.3,29.97,NNE,22,2.9,4.9,71,0.00,,SKC,0.00,VWS V14.01,2013-02-02 10:20:00,
2013-02-02 03:25:00,30.8,22.5,29.97,NW,315,2.5,4.9,71,0.00,,SKC,0.00,VWS V14.01,2013-02-02 10:25:00,
2013-02-02 03:30:00,30.8,22.5,29.97,NW,315,4.9,4.9,71,0.00,,SKC,0.00,VWS V14.01,2013-02-02 10:30:00,
2013-02-02 03:31:00,30.8,22.5,29.97,NW,315,4.9,4.9,71,0.00,,SKC,0.00,VWS V14.01,2013-02-02 10:31:00,
2013-02-02 03:32:00,30.8,22.5,29.97,NW,315,1.1,4.9,71,0.00,,SKC,0.00,VWS V14.01,2013-02-02 10:32:00,
2013-02-02 03:36:00,30.8,22.5,29.97,NW,315,1.1,4.9,71,0.00,,SKC,0.00,VWS V14.01,2013-02-02 10:36:00,
2013-02-02 03:41:00,30.8,22.5,29.97,NW,315,1.1,4.9,71,0.00,,SKC,0.00,VWS V14.01,2013-02-02 10:41:00,
2013-02-02 04:00:00,30.6,22.3,29.97,NW,315,3.4,4.9,71,0.00,,SKC,0.00,VWS V14.01,2013-02-02 11:00:00,
2013-02-02 04:05:00,30.8,22.5,29.97,WNW,292,0.7,3.4,71,0.00,,SKC,0.00,VWS V14.01,2013-02-02 11:05:00,
2013-02-02 04:10:00,30.6,22.3,29.96,WNW,292,1.6,3.4,71,0.00,,SKC,0.00,VWS V14.01,2013-02-02 11:10:00,
2013-02-02 04:15:00,31.0,22.4,29.97,WNW,292,1.1,4.3,70,0.00,,SKC,0.00,VWS V14.01,2013-02-02 11:15:00,
2013-02-02 04:20:00,31.0,22.4,29.97,WNW,292,1.8,4.3,70,0.00,,SKC,0.00,VWS V14.01,2013-02-02 11:20:00,
2013-02-02 04:25:00,30.8,22.2,29.97,WNW,292,6.3,6.3,70,0.00,,SKC,0.00,VWS V14.01,2013-02-02 11:25:00,
2013-02-02 04:30:00,30.8,22.2,29.97,North,0,0.4,0.4,70,0.00,,SKC,0.00,VWS V14.01,2013-02-02 11:30:00,
2013-02-02 04:32:00,30.8,22.2,29.97,NNW,338,2.7,4.5,70,0.00,,SKC,0.00,VWS V14.01,2013-02-02 11:32:00,
2013-02-02 04:36:00,30.8,22.2,29.97,NNW,338,2.7,4.5,70,0.00,,SKC,0.00,VWS V14.01,2013-02-02 11:36:00,
2013-02-02 04:41:00,30.8,22.2,29.97,NNW,338,2.7,4.5,70,0.00,,SKC,0.00,VWS V14.01,2013-02-02 11:41:00,
2013-02-02 05:00:00,31.3,22.0,29.97,WNW,292,1.3,1.3,68,0.00,,SKC,0.00,VWS V14.01,2013-02-02 12:00:00,
2013-02-02 05:05:00,31.3,21.6,29.97,North,0,3.8,4.3,67,0.00,,SKC,0.00,VWS V14.01,2013-02-02 12:05:00,
2013-02-02 05:10:00,31.3,21.6,29.97,WNW,292,2.2,4.3,67,0.00,,SKC,0.00,VWS V14.01,2013-02-02 12:10:00,
2013-02-02 05:15:00,31.5,21.8,29.97,NNE,22,0.7,4.3,67,0.00,,SKC,0.00,VWS V14.01,2013-02-02 12:15:00,
2013-02-02 05:20:00,31.3,21.3,29.97,NE,45,3.1,4.3,66,0.00,,SKC,0.00,VWS V14.01,2013-02-02 12:20:00,
2013-02-02 05:25:00,31.3,21.3,29.97,NW,315,0.4,4.5,66,0.00,,SKC,0.00,VWS V14.01,2013-02-02 12:25:00,
2013-02-02 05:30:00,31.0,21.3,29.97,WNW,292,0.2,0.2,67,0.00,,SKC,0.00,VWS V14.01,2013-02-02 12:30:00,
2013-02-02 05:32:00,31.0,21.3,29.97,NW,315,0.7,1.3,67,0.00,,SKC,0.00,VWS V14.01,2013-02-02 12:32:00,
2013-02-02 05:36:00,31.0,21.3,29.97,NW,315,0.7,1.3,67,0.00,,SKC,0.00,VWS V14.01,2013-02-02 12:36:00,
2013-02-02 05:41:00,31.0,21.3,29.97,NW,315,0.7,1.3,67,0.00,,SKC,0.00,VWS V14.01,2013-02-02 12:41:00,
2013-02-02 06:00:00,30.6,20.6,29.96,WNW,292,1.3,1.3,66,0.00,,SKC,0.00,VWS V14.01,2013-02-02 13:00:00,
2013-02-02 06:05:00,30.6,20.6,29.96,WNW,292,1.6,1.6,66,0.00,,SKC,0.00,VWS V14.01,2013-02-02 13:05:00,
2013-02-02 06:10:00,30.6,20.6,29.96,East,90,0.4,2.0,66,0.00,,SKC,0.00,VWS V14.01,2013-02-02 13:10:00,
2013-02-02 06:15:00,30.8,20.8,29.96,NW,315,2.7,2.7,66,0.00,,SKC,0.00,VWS V14.01,2013-02-02 13:15:00,
2013-02-02 06:20:00,31.0,21.0,29.96,NNW,338,4.0,4.0,66,0.00,,SKC,0.00,VWS V14.01,2013-02-02 13:20:00,
2013-02-02 06:25:00,31.0,21.0,29.96,WNW,292,0.0,8.9,66,0.00,,SKC,0.00,VWS V14.01,2013-02-02 13:25:00,
2013-02-02 06:30:00,30.6,20.6,29.96,NNW,338,1.8,1.8,66,0.00,,SKC,0.00,VWS V14.01,2013-02-02 13:30:00,
2013-02-02 06:32:00,30.8,20.8,29.96,WNW,292,5.6,5.6,66,0.00,,SKC,0.00,VWS V14.01,2013-02-02 13:32:00,
2013-02-02 06:36:00,30.8,20.8,29.96,WNW,292,5.6,5.6,66,0.00,,SKC,0.00,VWS V14.01,2013-02-02 13:36:00,
2013-02-02 06:41:00,30.8,20.8,29.96,WNW,292,5.6,5.6,66,0.00,,SKC,0.00,VWS V14.01,2013-02-02 13:41:00,
2013-02-02 07:00:00,31.1,20.7,29.96,NW,315,0.9,5.6,65,0.00,,SKC,0.00,VWS V14.01,2013-02-02 14:00:00,
2013-02-02 07:05:00,31.1,20.7,29.96,NNW,338,0.4,4.7,65,0.00,,SKC,0.00,VWS V14.01,2013-02-02 14:05:00,
2013-02-02 07:10:00,31.1,20.7,29.96,WNW,292,5.4,5.4,65,0.00,,SKC,0.00,VWS V14.01,2013-02-02 14:10:00,
2013-02-02 07:15:00,31.3,20.5,29.96,WNW,292,2.2,5.4,64,0.00,,SKC,0.00,VWS V14.01,2013-02-02 14:15:00,
2013-02-02 07:20:00,31.5,20.4,29.96,NW,315,2.9,5.4,63,0.00,,SKC,0.00,VWS V14.01,2013-02-02 14:20:00,
2013-02-02 07:25:00,31.5,20.7,29.97,NW,315,2.7,5.4,64,0.00,,SKC,0.00,VWS V14.01,2013-02-02 14:25:00,
2013-02-02 07:30:00,31.3,20.5,29.96,WNW,292,0.4,0.4,64,0.00,,SKC,0.00,VWS V14.01,2013-02-02 14:30:00,
2013-02-02 07:32:00,31.3,20.5,29.96,NW,315,4.5,4.5,64,0.00,,SKC,0.00,VWS V14.01,2013-02-02 14:32:00,
2013-02-02 07:36:00,31.3,20.5,29.96,NW,315,4.5,4.5,64,0.00,,SKC,0.00,VWS V14.01,2013-02-02 14:36:00,
2013-02-02 07:41:00,31.3,20.5,29.96,NW,315,4.5,4.5,64,0.00,,SKC,0.00,VWS V14.01,2013-02-02 14:41:00,
2013-02-02 08:00:00,34.0,21.6,29.97,NW,315,2.2,2.2,60,0.00,,SKC,0.00,VWS V14.01,2013-02-02 15:00:00,
2013-02-02 08:05:00,34.7,21.5,29.97,NW,315,3.8,4.5,58,0.00,,SKC,0.00,VWS V14.01,2013-02-02 15:05:00,
2013-02-02 08:10:00,35.3,22.0,29.98,WNW,292,2.5,4.5,58,0.00,,SKC,0.00,VWS V14.01,2013-02-02 15:10:00,
2013-02-02 08:15:00,35.6,21.9,29.98,NE,45,3.4,4.5,57,0.00,,SKC,0.00,VWS V14.01,2013-02-02 15:15:00,
2013-02-02 08:20:00,36.2,22.0,29.98,NW,315,1.8,4.5,56,0.00,,SKC,0.00,VWS V14.01,2013-02-02 15:20:00,
2013-02-02 08:25:00,36.7,21.6,29.98,NW,315,2.2,4.9,54,0.00,,SKC,0.00,VWS V14.01,2013-02-02 15:25:00,
2013-02-02 08:30:00,37.4,21.9,29.98,NW,315,1.6,4.9,53,0.00,,SKC,0.00,VWS V14.01,2013-02-02 15:30:00,
2013-02-02 08:31:00,37.4,21.9,29.98,NW,315,1.6,1.6,53,0.00,,SKC,0.00,VWS V14.01,2013-02-02 15:31:00,
2013-02-02 08:32:00,37.4,21.9,29.98,NNW,338,4.3,4.3,53,0.00,,SKC,0.00,VWS V14.01,2013-02-02 15:32:00,
2013-02-02 08:36:00,37.4,21.9,29.98,NNW,338,4.3,4.3,53,0.00,,SKC,0.00,VWS V14.01,2013-02-02 15:36:00,
2013-02-02 08:41:00,37.4,21.9,29.98,NNW,338,4.3,4.3,53,0.00,,SKC,0.00,VWS V14.01,2013-02-02 15:41:00,
2013-02-02 09:00:00,40.0,22.4,29.98,WNW,292,3.1,3.1,49,0.00,,SKC,0.00,VWS V14.01,2013-02-02 16:00:00,
2013-02-02 09:05:00,40.7,22.5,29.98,NW,315,4.5,5.8,48,0.00,,SKC,0.00,VWS V14.01,2013-02-02 16:05:00,
2013-02-02 09:10:00,41.9,22.1,29.98,NW,315,6.0,6.0,45,0.00,,SKC,0.00,VWS V14.01,2013-02-02 16:10:00,
2013-02-02 09:15:00,42.3,23.0,29.98,WNW,292,3.4,6.0,46,0.00,,SKC,0.00,VWS V14.01,2013-02-02 16:15:00,
2013-02-02 09:20:00,42.1,22.3,29.98,NW,315,4.3,8.5,45,0.00,,SKC,0.00,VWS V14.01,2013-02-02 16:20:00,
2013-02-02 09:25:00,42.8,22.4,29.98,WNW,292,5.4,8.5,44,0.00,,SKC,0.00,VWS V14.01,2013-02-02 16:25:00,
2013-02-02 09:30:00,43.7,22.1,29.98,NW,315,6.9,8.5,42,0.00,,SKC,0.00,VWS V14.01,2013-02-02 16:30:00,
2013-02-02 09:31:00,43.7,22.1,29.98,NW,315,6.9,6.9,42,0.00,,SKC,0.00,VWS V14.01,2013-02-02 16:31:00,
2013-02-02 09:32:00,43.7,22.7,29.98,WNW,292,4.7,6.9,43,0.00,,SKC,0.00,VWS V14.01,2013-02-02 16:32:00,
2013-02-02 09:36:00,43.7,22.7,29.98,WNW,292,4.7,6.9,43,0.00,,SKC,0.00,VWS V14.01,2013-02-02 16:36:00,
2013-02-02 09:41:00,43.7,22.7,29.98,WNW,292,4.7,6.9,43,0.00,,SKC,0.00,VWS V14.01,2013-02-02 16:41:00,
2013-02-02 10:00:00,43.6,22.0,29.99,WNW,292,6.9,6.9,42,0.00,,SKC,0.00,VWS V14.01,2013-02-02 17:00:00,
2013-02-02 10:05:00,42.8,21.3,29.98,WNW,292,4.7,6.9,42,0.00,,SKC,0.00,VWS V14.01,2013-02-02 17:05:00,
2013-02-02 10:10:00,43.6,22.6,29.98,NW,315,2.2,6.9,43,0.00,,SKC,0.00,VWS V14.01,2013-02-02 17:10:00,
2013-02-02 10:15:00,44.6,21.8,29.98,NNW,338,4.0,6.9,40,0.00,,SKC,0.00,VWS V14.01,2013-02-02 17:15:00,
2013-02-02 10:20:00,44.3,21.5,29.98,North,0,1.1,7.2,40,0.00,,SKC,0.00,VWS V14.01,2013-02-02 17:20:00,
2013-02-02 10:25:00,44.3,21.5,29.99,WNW,292,2.9,7.2,40,0.00,,SKC,0.00,VWS V14.01,2013-02-02 17:25:00,
2013-02-02 10:30:00,45.0,21.5,29.99,NW,315,4.9,4.9,39,0.00,,SKC,0.00,VWS V14.01,2013-02-02 17:30:00,
2013-02-02 10:32:00,45.5,22.0,29.99,WNW,292,1.1,4.9,39,0.00,,SKC,0.00,VWS V14.01,2013-02-02 17:32:00,
2013-02-02 10:36:00,45.5,22.0,29.99,WNW,292,1.1,4.9,39,0.00,,SKC,0.00,VWS V14.01,2013-02-02 17:36:00,
2013-02-02 10:41:00,45.5,22.0,29.99,WNW,292,1.1,4.9,39,0.00,,SKC,0.00,VWS V14.01,2013-02-02 17:41:00,
2013-02-02 11:00:00,43.2,20.5,29.99,NW,315,4.0,4.9,40,0.00,,SKC,0.00,VWS V14.01,2013-02-02 18:00:00,
2013-02-02 11:05:00,43.4,21.9,29.99,NNW,338,3.8,6.7,42,0.00,,SKC,0.00,VWS V14.01,2013-02-02 18:05:00,
2013-02-02 11:10:00,44.6,21.8,29.99,NNE,22,2.0,6.7,40,0.00,,SKC,0.00,VWS V14.01,2013-02-02 18:10:00,
2013-02-02 11:15:00,45.0,20.9,29.99,North,0,5.4,6.7,38,0.00,,SKC,0.00,VWS V14.01,2013-02-02 18:15:00,
2013-02-02 11:20:00,44.6,21.8,29.99,ENE,68,1.3,6.7,40,0.00,,SKC,0.00,VWS V14.01,2013-02-02 18:20:00,
2013-02-02 11:25:00,43.6,22.0,29.98,WNW,292,1.8,6.7,42,0.00,,SKC,0.00,VWS V14.01,2013-02-02 18:25:00,
2013-02-02 11:30:00,42.8,21.9,29.98,NE,45,1.8,1.8,43,0.00,,SKC,0.00,VWS V14.01,2013-02-02 18:30:00,
2013-02-02 11:32:00,42.7,21.8,29.98,NNW,338,1.6,2.2,43,0.00,,SKC,0.00,VWS V14.01,2013-02-02 18:32:00,
2013-02-02 11:35:00,42.7,21.8,29.98,NNW,338,1.6,2.2,43,0.00,,SKC,0.00,VWS V14.01,2013-02-02 18:35:00,
2013-02-02 11:41:00,42.7,21.8,29.98,NNW,338,1.6,2.2,43,0.00,,SKC,0.00,VWS V14.01,2013-02-02 18:41:00,
2013-02-02 12:00:00,42.5,21.6,29.97,NW,315,7.8,7.8,43,0.00,,SKC,0.00,VWS V14.01,2013-02-02 19:00:00,
2013-02-02 12:05:00,42.1,21.8,29.97,NNW,338,3.8,7.8,44,0.00,,SKC,0.00,VWS V14.01,2013-02-02 19:05:00,
2013-02-02 12:10:00,41.9,21.6,29.97,NE,45,4.0,7.8,44,0.00,,SKC,0.00,VWS V14.01,2013-02-02 19:10:00,
2013-02-02 12:15:00,41.6,21.3,29.97,NNW,338,4.0,7.8,44,0.00,,SKC,0.00,VWS V14.01,2013-02-02 19:15:00,
2013-02-02 12:20:00,41.4,21.7,29.97,NNW,338,1.3,7.8,45,0.00,,SKC,0.00,VWS V14.01,2013-02-02 19:20:00,
2013-02-02 12:25:00,41.2,21.5,29.97,WNW,292,5.4,7.8,45,0.00,,SKC,0.00,VWS V14.01,2013-02-02 19:25:00,
2013-02-02 12:30:00,41.2,22.0,29.97,WNW,292,4.0,4.0,46,0.00,,SKC,0.00,VWS V14.01,2013-02-02 19:30:00,
2013-02-02 12:32:00,41.4,21.7,29.97,NW,315,8.1,8.1,45,0.00,,SKC,0.00,VWS V14.01,2013-02-02 19:32:00,
2013-02-02 12:36:00,41.4,21.7,29.97,NW,315,8.1,8.1,45,0.00,,SKC,0.00,VWS V14.01,2013-02-02 19:36:00,
2013-02-02 12:41:00,41.4,21.7,29.97,NW,315,8.1,8.1,45,0.00,,SKC,0.00,VWS V14.01,2013-02-02 19:41:00,
2013-02-02 13:00:00,41.0,22.3,29.97,WNW,292,3.6,8.1,47,0.00,,SKC,0.00,VWS V14.01,2013-02-02 20:00:00,
2013-02-02 13:02:00,41.2,22.5,29.97,WNW,292,6.3,9.8,47,0.00,,SKC,0.00,VWS V14.01,2013-02-02 20:02:00,
2013-02-02 13:05:00,41.2,22.5,29.97,WNW,292,6.3,9.8,47,0.00,,SKC,0.00,VWS V14.01,2013-02-02 20:05:00,
2013-02-02 13:10:00,41.2,22.5,29.97,WNW,292,6.3,9.8,47,0.00,,SKC,0.00,VWS V14.01,2013-02-02 20:10:00,
2013-02-02 13:40:00,40.7,23.0,29.96,East,90,4.9,9.8,49,0.00,,SKC,0.00,VWS V14.01,2013-02-02 20:40:00,
2013-02-02 13:45:00,40.7,23.0,29.96,NNW,338,3.6,9.8,49,0.00,,SKC,0.00,VWS V14.01,2013-02-02 20:45:00,
2013-02-02 14:22:00,40.1,23.0,29.98,NNE,22,2.9,9.8,50,0.00,,SKC,0.00,VWS V14.01,2013-02-02 21:22:00,
2013-02-02 14:27:00,40.3,22.7,29.98,WNW,292,4.0,9.8,49,0.00,,SKC,0.00,VWS V14.01,2013-02-02 21:27:00,
2013-02-02 14:34:00,82.4,82.4,30.16,North,0,0.0,0.0,100,0.00,,SKC,0.00,VWS V14.01,2013-02-02 21:34:00,
2013-02-02 14:39:00,39.8,22.7,29.99,NW,315,6.5,8.3,50,0.00,,SKC,22.48,VWS V14.01,2013-02-02 21:39:00,
2013-02-02 14:45:00,39.6,23.0,29.98,NW,315,4.0,8.7,51,0.00,,SKC,22.48,VWS V14.01,2013-02-02 21:45:00,
2013-02-02 14:50:00,39.6,22.5,29.99,NW,315,5.6,13.2,50,0.00,,SKC,22.48,VWS V14.01,2013-02-02 21:50:00,
2013-02-02 14:55:00,39.4,21.8,29.99,ENE,68,4.7,13.2,49,0.00,,SKC,22.48,VWS V14.01,2013-02-02 21:55:00,
2013-02-02 15:00:00,39.4,22.3,29.99,WNW,292,2.7,2.7,50,0.00,,SKC,22.48,VWS V14.01,2013-02-02 22:00:00,
2013-02-02 15:05:00,39.2,22.1,29.99,NW,315,6.9,9.8,50,0.00,,SKC,22.48,VWS V14.01,2013-02-02 22:05:00,
2013-02-02 15:10:00,39.2,22.1,29.99,NE,45,3.4,9.8,50,0.00,,SKC,22.48,VWS V14.01,2013-02-02 22:10:00,
2013-02-02 15:15:00,39.1,22.0,30.00,NNW,338,5.1,9.8,50,0.00,,SKC,22.48,VWS V14.01,2013-02-02 22:15:00,
2013-02-02 15:20:00,38.9,21.4,30.00,WNW,292,4.7,9.8,49,0.00,,SKC,22.48,VWS V14.01,2013-02-02 22:20:00,
2013-02-02 15:26:00,38.9,21.4,30.00,WNW,292,2.7,9.8,49,0.00,,SKC,22.48,VWS V14.01,2013-02-02 22:26:00,
2013-02-02 15:31:00,38.7,21.2,30.01,East,90,2.5,8.1,49,0.00,,SKC,22.48,VWS V14.01,2013-02-02 22:31:00,
2013-02-02 15:36:00,38.5,21.5,30.01,NNE,22,2.9,8.1,50,0.00,,SKC,22.48,VWS V14.01,2013-02-02 22:36:00,
2013-02-02 15:41:00,38.3,21.3,30.01,WNW,292,5.4,8.1,50,0.00,,SKC,22.48,VWS V14.01,2013-02-02 22:41:00,
2013-02-02 15:46:00,38.3,21.3,30.01,NNW,338,4.7,8.1,50,0.00,,SKC,22.48,VWS V14.01,2013-02-02 22:46:00,
2013-02-02 15:51:00,38.2,20.7,30.01,WNW,292,3.1,8.1,49,0.00,,SKC,22.48,VWS V14.01,2013-02-02 22:51:00,
2013-02-02 15:56:00,38.0,20.5,30.01,NW,315,3.8,8.1,49,0.00,,SKC,22.48,VWS V14.01,2013-02-02 22:56:00,
2013-02-02 16:02:00,37.8,20.4,30.01,WNW,292,7.2,7.2,49,0.00,,SKC,22.48,VWS V14.01,2013-02-02 23:02:00,
2013-02-02 16:07:00,37.4,20.5,30.01,WNW,292,4.7,7.2,50,0.00,,SKC,22.48,VWS V14.01,2013-02-02 23:07:00,
2013-02-02 16:12:00,37.1,20.2,30.01,WNW,292,5.4,7.2,50,0.00,,SKC,22.48,VWS V14.01,2013-02-02 23:12:00,
2013-02-02 16:17:00,37.1,20.2,30.01,NNE,22,3.8,8.7,50,0.00,,SKC,22.48,VWS V14.01,2013-02-02 23:17:00,
2013-02-02 16:22:00,36.9,20.0,30.01,NNW,338,4.0,8.7,50,0.00,,SKC,22.48,VWS V14.01,2013-02-02 23:22:00,
2013-02-02 16:27:00,37.1,20.2,30.01,NW,315,1.6,8.7,50,0.00,,SKC,22.48,VWS V14.01,2013-02-02 23:27:00,
2013-02-02 16:32:00,36.7,20.3,30.01,WNW,292,3.8,5.1,51,0.00,,SKC,22.48,VWS V14.01,2013-02-02 23:32:00,
2013-02-02 16:37:00,36.7,20.8,30.01,WNW,292,4.0,5.1,52,0.00,,SKC,22.48,VWS V14.01,2013-02-02 23:37:00,
2013-02-02 16:43:00,36.4,20.0,30.00,WNW,292,4.0,6.3,51,0.00,,SKC,22.48,VWS V14.01,2013-02-02 23:43:00,
2013-02-02 16:48:00,36.5,20.1,30.01,NNW,338,0.7,6.3,51,0.00,,SKC,22.48,VWS V14.01,2013-02-02 23:48:00,
2013-02-02 16:53:00,36.2,20.3,30.01,East,90,3.4,6.3,52,0.00,,SKC,22.48,VWS V14.01,2013-02-02 23:53:00,
2013-02-02 16:58:00,36.0,20.5,30.01,North,0,0.4,6.3,53,0.00,,SKC,22.48,VWS V14.01,2013-02-02 23:58:00,
2013-02-02 17:03:00,35.8,20.4,30.01,WNW,292,1.8,2.5,53,0.00,,SKC,22.48,VWS V14.01,2013-02-03 00:03:00,
2013-02-02 17:08:00,35.6,20.6,30.01,WNW,292,6.5,6.5,54,0.00,,SKC,22.48,VWS V14.01,2013-02-03 00:08:00,
2013-02-02 17:13:00,35.6,20.2,30.01,NE,45,3.6,8.5,53,0.00,,SKC,22.48,VWS V14.01,2013-02-03 00:13:00,
2013-02-02 17:18:00,35.5,20.5,30.02,WNW,292,2.0,8.5,54,0.00,,SKC,22.48,VWS V14.01,2013-02-03 00:18:00,
2013-02-02 17:24:00,35.1,20.6,30.02,NW,315,0.7,8.5,55,0.00,,SKC,22.48,VWS V14.01,2013-02-03 00:24:00,
2013-02-02 17:29:00,35.3,20.8,30.02,NW,315,0.2,8.5,55,0.00,,SKC,22.48,VWS V14.01,2013-02-03 00:29:00,
2013-02-02 17:34:00,34.9,20.8,30.02,NE,45,1.6,4.7,56,0.00,,SKC,22.48,VWS V14.01,2013-02-03 00:34:00,
2013-02-02 17:39:00,34.6,20.5,30.03,WNW,292,0.7,4.7,56,0.00,,SKC,22.48,VWS V14.01,2013-02-03 00:39:00,
2013-02-02 17:44:00,34.4,20.3,30.03,NW,315,2.5,4.7,56,0.00,,SKC,22.48,VWS V14.01,2013-02-03 00:44:00,
2013-02-02 17:49:00,34.6,20.5,30.03,NW,315,1.6,4.7,56,0.00,,SKC,22.48,VWS V14.01,2013-02-03 00:49:00,
2013-02-02 17:54:00,34.6,20.5,30.03,WNW,292,1.8,4.7,56,0.00,,SKC,22.48,VWS V14.01,2013-02-03 00:54:00,
2013-02-02 17:59:00,34.2,20.1,30.03,NW,315,0.4,4.7,56,0.00,,SKC,22.48,VWS V14.01,2013-02-03 00:59:00,
2013-02-02 18:05:00,33.7,20.1,30.03,NNW,338,0.0,3.4,57,0.00,,SKC,22.48,VWS V14.01,2013-02-03 01:05:00,
2013-02-02 18:10:00,33.5,20.3,30.04,NW,315,0.4,4.5,58,0.00,,SKC,22.48,VWS V14.01,2013-02-03 01:10:00,
2013-02-02 18:15:00,33.5,20.3,30.04,NNE,22,3.4,4.5,58,0.00,,SKC,22.48,VWS V14.01,2013-02-03 01:15:00,
2013-02-02 18:20:00,32.9,20.5,30.04,NW,315,1.8,4.7,60,0.00,,SKC,22.48,VWS V14.01,2013-02-03 01:20:00,
2013-02-02 18:25:00,32.8,20.9,30.04,NNE,22,4.7,4.7,61,0.00,,SKC,22.48,VWS V14.01,2013-02-03 01:25:00,
2013-02-02 18:30:00,33.1,21.1,30.04,WNW,292,1.1,1.1,61,0.00,,SKC,22.48,VWS V14.01,2013-02-03 01:30:00,
2013-02-02 18:35:00,32.9,20.9,30.04,WNW,292,0.4,1.1,61,0.00,,SKC,22.48,VWS V14.01,2013-02-03 01:35:00,
2013-02-02 18:40:00,32.4,20.9,30.04,NW,315,0.4,4.7,62,0.00,,SKC,22.48,VWS V14.01,2013-02-03 01:40:00,
2013-02-02 18:46:00,32.2,21.0,30.04,NW,315,0.4,4.7,63,0.00,,SKC,22.48,VWS V14.01,2013-02-03 01:46:00,
2013-02-02 18:51:00,32.0,20.9,30.04,NW,315,0.4,4.7,63,0.00,,SKC,22.48,VWS V14.01,2013-02-03 01:51:00,
2013-02-02 18:56:00,32.0,21.2,30.04,WNW,292,0.0,4.7,64,0.00,,SKC,22.48,VWS V14.01,2013-02-03 01:56:00,
2013-02-02 19:01:00,31.9,21.1,30.04,NW,315,0.4,1.8,64,0.00,,SKC,22.48,VWS V14.01,2013-02-03 02:01:00,
2013-02-02 19:06:00,31.3,20.9,30.04,ENE,68,1.8,3.1,65,0.00,,SKC,22.48,VWS V14.01,2013-02-03 02:06:00,
2013-02-02 19:11:00,31.5,21.1,30.04,WNW,292,0.9,3.1,65,0.00,,SKC,22.48,VWS V14.01,2013-02-03 02:11:00,
2013-02-02 19:16:00,31.3,21.3,30.04,NW,315,0.4,3.1,66,0.00,,SKC,22.48,VWS V14.01,2013-02-03 02:16:00,
2013-02-02 19:21:00,31.3,21.3,30.04,NW,315,0.4,3.1,66,0.00,,SKC,22.48,VWS V14.01,2013-02-03 02:21:00,
2013-02-02 19:27:00,31.0,21.0,30.04,WNW,292,0.2,3.1,66,0.00,,SKC,22.48,VWS V14.01,2013-02-03 02:27:00,
2013-02-02 19:32:00,30.8,20.8,30.04,NNW,338,0.2,0.4,66,0.00,,SKC,22.48,VWS V14.01,2013-02-03 02:32:00,
2013-02-02 19:37:00,30.6,20.6,30.04,WNW,292,1.3,1.8,66,0.00,,SKC,22.48,VWS V14.01,2013-02-03 02:37:00,
2013-02-02 19:42:00,30.6,21.0,30.04,WNW,292,1.1,1.8,67,0.00,,SKC,22.48,VWS V14.01,2013-02-03 02:42:00,
2013-02-02 19:47:00,30.6,21.0,30.04,NNW,338,2.2,2.2,67,0.00,,SKC,22.48,VWS V14.01,2013-02-03 02:47:00,
2013-02-02 19:52:00,30.2,20.6,30.04,NNW,338,1.3,2.5,67,0.00,,SKC,22.48,VWS V14.01,2013-02-03 02:52:00,
2013-02-02 19:57:00,29.9,20.6,30.04,NNW,338,1.1,2.7,68,0.00,,SKC,22.48,VWS V14.01,2013-02-03 02:57:00,
2013-02-02 20:02:00,29.9,21.0,30.04,WNW,292,0.2,1.3,69,0.00,,SKC,22.48,VWS V14.01,2013-02-03 03:02:00,
2013-02-02 20:08:00,29.3,20.7,30.04,NW,315,0.2,2.2,70,0.00,,SKC,22.48,VWS V14.01,2013-02-03 03:08:00,
2013-02-02 20:13:00,29.2,20.6,30.04,WNW,292,0.0,2.2,70,0.00,,SKC,22.48,VWS V14.01,2013-02-03 03:13:00,
2013-02-02 20:18:00,28.8,20.3,30.04,WNW,292,0.0,2.2,70,0.00,,SKC,22.48,VWS V14.01,2013-02-03 03:18:00,
2013-02-02 20:23:00,28.4,20.5,30.04,WNW,292,0.0,2.2,72,0.00,,SKC,22.48,VWS V14.01,2013-02-03 03:23:00,
2013-02-02 20:28:00,27.7,19.5,30.04,NNW,338,0.9,2.2,71,0.00,,SKC,22.48,VWS V14.01,2013-02-03 03:28:00,
2013-02-02 20:33:00,27.5,20.0,30.04,NW,315,0.2,0.7,73,0.00,,SKC,22.48,VWS V14.01,2013-02-03 03:33:00,
2013-02-02 20:39:00,27.0,19.2,30.04,NW,315,0.0,0.7,72,0.00,,SKC,22.48,VWS V14.01,2013-02-03 03:39:00,
2013-02-02 20:44:00,26.6,19.1,30.05,NNW,338,0.0,0.7,73,0.00,,SKC,22.48,VWS V14.01,2013-02-03 03:44:00,
2013-02-02 20:49:00,26.3,18.8,30.04,North,0,1.1,1.6,73,0.00,,SKC,22.48,VWS V14.01,2013-02-03 03:49:00,
2013-02-02 20:54:00,26.1,19.6,30.04,WNW,292,0.7,1.6,76,0.00,,SKC,22.48,VWS V14.01,2013-02-03 03:54:00,
2013-02-02 20:59:00,26.3,20.1,30.04,WNW,292,1.3,1.6,77,0.00,,SKC,22.48,VWS V14.01,2013-02-03 03:59:00,
2013-02-02 21:04:00,26.3,20.1,30.04,WNW,292,0.4,1.6,77,0.00,,SKC,22.48,VWS V14.01,2013-02-03 04:04:00,
2013-02-02 21:09:00,26.5,20.0,30.04,WNW,292,0.7,1.6,76,0.00,,SKC,22.48,VWS V14.01,2013-02-03 04:09:00,
2013-02-02 21:14:00,26.5,20.0,30.04,WNW,292,0.4,1.6,76,0.00,,SKC,22.48,VWS V14.01,2013-02-03 04:14:00,
2013-02-02 21:19:00,26.3,20.1,30.04,WNW,292,0.4,1.6,77,0.00,,SKC,22.48,VWS V14.01,2013-02-03 04:19:00,
2013-02-02 21:25:00,26.3,19.8,30.04,NW,315,0.4,1.6,76,0.00,,SKC,22.48,VWS V14.01,2013-02-03 04:25:00,
2013-02-02 21:30:00,26.5,20.3,30.04,WNW,292,0.4,0.4,77,0.00,,SKC,22.48,VWS V14.01,2013-02-03 04:30:00,
2013-02-02 21:35:00,26.5,20.3,30.04,WNW,292,0.2,0.9,77,0.00,,SKC,22.48,VWS V14.01,2013-02-03 04:35:00,
2013-02-02 21:40:00,26.3,20.1,30.04,NW,315,0.4,1.3,77,0.00,,SKC,22.48,VWS V14.01,2013-02-03 04:40:00,
2013-02-02 21:45:00,26.5,20.6,30.03,NW,315,1.1,1.3,78,0.00,,SKC,22.48,VWS V14.01,2013-02-03 04:45:00,
2013-02-02 21:50:00,26.6,20.4,30.03,NW,315,0.7,1.3,77,0.00,,SKC,22.48,VWS V14.01,2013-02-03 04:50:00,
2013-02-02 21:55:00,26.6,20.7,30.03,NNW,338,1.8,1.8,78,0.00,,SKC,22.48,VWS V14.01,2013-02-03 04:55:00,
2013-02-02 22:00:00,27.0,21.1,30.03,NW,315,0.9,0.9,78,0.00,,SKC,22.48,VWS V14.01,2013-02-03 05:00:00,
2013-02-02 22:01:00,27.0,21.1,30.03,NNW,338,1.1,1.1,78,0.00,,SKC,22.48,VWS V14.01,2013-02-03 05:01:00,
2013-02-02 22:03:00,27.0,20.8,30.03,NW,315,0.4,1.1,77,0.00,,SKC,22.48,VWS V14.01,2013-02-03 05:03:00,
2013-02-02 22:08:00,27.0,20.5,30.03,NNW,338,0.7,1.1,76,0.00,,SKC,22.48,VWS V14.01,2013-02-03 05:08:00,
2013-02-02 22:13:00,26.8,20.3,30.03,NW,315,1.1,1.1,76,0.00,,SKC,22.48,VWS V14.01,2013-02-03 05:13:00,
2013-02-02 22:18:00,27.0,20.5,30.03,NNW,338,0.4,1.6,76,0.00,,SKC,22.48,VWS V14.01,2013-02-03 05:18:00,
2013-02-02 22:24:00,27.0,20.5,30.02,NNW,338,1.8,1.8,76,0.00,,SKC,22.48,VWS V14.01,2013-02-03 05:24:00,
2013-02-02 22:29:00,27.0,20.1,30.02,NNW,338,0.9,1.8,75,0.00,,SKC,22.48,VWS V14.01,2013-02-03 05:29:00,
2013-02-02 22:34:00,27.0,20.5,30.02,WNW,292,1.1,1.1,76,0.00,,SKC,22.48,VWS V14.01,2013-02-03 05:34:00,
2013-02-02 22:39:00,26.6,19.8,30.02,NW,315,0.0,1.1,75,0.00,,SKC,22.48,VWS V14.01,2013-02-03 05:39:00,
2013-02-02 22:44:00,26.3,19.8,30.02,NW,315,0.2,1.8,76,0.00,,SKC,22.48,VWS V14.01,2013-02-03 05:44:00,
2013-02-02 22:49:00,25.9,19.7,30.02,NW,315,0.4,1.8,77,0.00,,SKC,22.48,VWS V14.01,2013-02-03 05:49:00,
2013-02-02 22:54:00,25.7,19.8,30.02,NNW,338,0.7,1.8,78,0.00,,SKC,22.48,VWS V14.01,2013-02-03 05:54:00,
2013-02-02 22:59:00,25.7,19.8,30.02,NNW,338,0.0,1.8,78,0.00,,SKC,22.48,VWS V14.01,2013-02-03 05:59:00,
2013-02-02 23:05:00,25.9,20.0,30.02,NNW,338,1.1,1.1,78,0.00,,SKC,22.48,VWS V14.01,2013-02-03 06:05:00,
2013-02-02 23:10:00,25.9,20.0,30.02,NNW,338,1.8,1.8,78,0.00,,SKC,22.48,VWS V14.01,2013-02-03 06:10:00,
2013-02-02 23:15:00,26.1,20.2,30.03,NE,45,0.0,1.8,78,0.00,,SKC,22.48,VWS V14.01,2013-02-03 06:15:00,
2013-02-02 23:20:00,26.1,20.2,30.03,NNW,338,0.7,1.8,78,0.00,,SKC,22.48,VWS V14.01,2013-02-03 06:20:00,
2013-02-02 23:25:00,26.1,20.2,30.03,NW,315,0.4,1.8,78,0.00,,SKC,22.48,VWS V14.01,2013-02-03 06:25:00,
2013-02-02 23:30:00,25.9,19.7,30.03,NW,315,0.4,0.4,77,0.00,,SKC,22.48,VWS V14.01,2013-02-03 06:30:00,
2013-02-02 23:35:00,25.7,19.5,30.03,NW,315,0.0,0.9,77,0.00,,SKC,22.48,VWS V14.01,2013-02-03 06:35:00,
2013-02-02 23:40:00,25.6,19.4,30.03,NW,315,0.2,0.9,77,0.00,,SKC,22.48,VWS V14.01,2013-02-03 06:40:00,
2013-02-02 23:45:00,25.2,19.3,30.03,NNW,338,0.4,1.3,78,0.00,,SKC,22.48,VWS V14.01,2013-02-03 06:45:00,
2013-02-02 23:51:00,25.0,19.1,30.02,NW,315,0.4,1.3,78,0.00,,SKC,22.48,VWS V14.01,2013-02-03 06:51:00,
2013-02-02 23:56:00,25.0,19.4,30.02,NW,315,1.1,1.3,79,0.00,,SKC,22.48,VWS V14.01,2013-02-03 06:56:00,